Time;durP1;ratioP1;P1;durP2;ratioP2;P2;SDS_P1;SDS_P2;PMS_P1;PMS_P2;Temp;Humidity;BMP_temperature;BMP_pressure;BME280_temperature;BME280_humidity;BME280_pressure;Samples;Min_cycle;Max_cycle;Signal;HPM_P1;HPM_P2
2022/12/19 00:01:18;;;;;;;2.75;1.55;;;;;;;;;;5029003;28;20040;-74
2022/12/19 00:03:52;;;;;;;0.15;0.15;;;;;;;;;;5029231;28;20492;-73
2022/12/19 00:06:19;;;;;;;0.20;0.20;;;;;;;;;;5028142;28;20503;-75
2022/12/19 00:08:45;;;;;;;1.40;1.30;;;;;;;;;;5036296;28;20052;-75
2022/12/19 00:11:11;;;;;;;5.22;4.88;;;;;;;;;;5049066;28;20044;-74
2022/12/19 00:13:37;;;;;;;0.10;0.10;;;;;;;;;;5048638;28;20029;-75
2022/12/19 00:16:03;;;;;;;0.35;0.35;;;;;;;;;;5031952;28;20040;-75
2022/12/19 00:18:29;;;;;;;0.20;0.20;;;;;;;;;;5049281;28;20023;-76
2022/12/19 00:20:59;;;;;;;0.55;0.55;;;;;;;;;;5049093;28;20108;-75
2022/12/19 00:23:26;;;;;;;0.73;0.73;;;;;;;;;;5049382;28;20112;-75
2022/12/19 00:25:52;;;;;;;0.20;0.20;;;;;;;;;;5048718;28;20084;-75
2022/12/19 00:28:17;;;;;;;0.30;0.30;;;;;;;;;;5051606;28;20025;-74
2022/12/19 00:30:43;;;;;;;0.25;0.25;;;;;;;;;;5053083;28;20086;-75
2022/12/19 00:33:08;;;;;;;2.58;2.38;;;;;;;;;;5053356;28;20068;-75
2022/12/19 00:35:34;;;;;;;0.82;0.80;;;;;;;;;;5032956;28;20036;-75
2022/12/19 00:38:01;;;;;;;0.57;0.57;;;;;;;;;;5033547;28;20025;-75
2022/12/19 00:40:27;;;;;;;3.53;3.22;;;;;;;;;;5035104;28;20036;-75
2022/12/19 00:42:52;;;;;;;0.35;0.35;;;;;;;;;;5031800;28;20025;-74
2022/12/19 00:45:18;;;;;;;0.50;0.50;;;;;;;;;;5029452;28;20064;-75
2022/12/19 00:47:44;;;;;;;2.05;1.95;;;;;;;;;;5028228;28;20392;-74
2022/12/19 00:50:09;;;;;;;0.43;0.43;;;;;;;;;;5045659;28;20025;-75
2022/12/19 00:52:36;;;;;;;0.73;0.73;;;;;;;;;;5044666;28;20034;-73
2022/12/19 00:55:02;;;;;;;0.40;0.40;;;;;;;;;;5044074;28;20071;-73
2022/12/19 00:57:27;;;;;;;0.50;0.50;;;;;;;;;;5056322;28;20086;-74
2022/12/19 00:59:53;;;;;;;0.10;0.10;;;;;;;;;;5038748;28;20040;-74
2022/12/19 01:02:18;;;;;;;0.90;0.90;;;;;;;;;;5052007;28;20537;-74
2022/12/19 01:04:45;;;;;;;1.52;1.45;;;;;;;;;;5048920;28;20082;-74
2022/12/19 01:07:11;;;;;;;0.60;0.60;;;;;;;;;;5056460;28;20104;-75
2022/12/19 01:09:36;;;;;;;1.42;1.33;;;;;;;;;;5055996;28;20496;-75
2022/12/19 01:14:47;;;;;;;0.50;0.50;;;;;;;;;;5056143;28;20029;-74
2022/12/19 01:17:12;;;;;;;2.30;2.17;;;;;;;;;;5038567;28;20017;-74
2022/12/19 01:19:38;;;;;;;0.40;0.40;;;;;;;;;;5056150;28;20029;-74
2022/12/19 01:22:03;;;;;;;8.45;7.88;;;;;;;;;;5038283;28;20059;-74
2022/12/19 01:24:29;;;;;;;0.60;0.60;;;;;;;;;;5055216;28;20021;-74
2022/12/19 01:26:54;;;;;;;0.20;0.20;;;;;;;;;;5055742;28;20385;-74
2022/12/19 01:29:20;;;;;;;0.50;0.50;;;;;;;;;;5056110;28;20079;-74
2022/12/19 01:31:46;;;;;;;0.32;0.32;;;;;;;;;;5037819;28;20075;-74
2022/12/19 01:34:12;;;;;;;1.77;1.67;;;;;;;;;;5055936;28;20025;-74
2022/12/19 01:36:38;;;;;;;0.20;0.20;;;;;;;;;;5055663;28;20037;-74
2022/12/19 01:39:03;;;;;;;0.40;0.32;;;;;;;;;;5054384;28;20021;-75
2022/12/19 01:41:28;;;;;;;0.15;0.15;;;;;;;;;;5054800;28;20036;-75
2022/12/19 01:43:56;;;;;;;2.72;1.85;;;;;;;;;;5055810;28;20031;-75
2022/12/19 01:46:25;;;;;;;1.48;1.38;;;;;;;;;;5037866;28;20032;-75
2022/12/19 01:48:51;;;;;;;2.35;1.85;;;;;;;;;;5055614;28;20032;-75
2022/12/19 01:51:21;;;;;;;0.20;0.20;;;;;;;;;;5055381;28;20037;-75
2022/12/19 01:53:57;;;;;;;0.20;0.20;;;;;;;;;;5055441;28;20118;-74
2022/12/19 01:56:33;;;;;;;1.90;1.80;;;;;;;;;;5036892;28;20033;-75
2022/12/19 01:59:00;;;;;;;0.20;0.20;;;;;;;;;;5037689;28;20037;-75
2022/12/19 02:01:25;;;;;;;0.20;0.20;;;;;;;;;;5037481;28;20029;-74
2022/12/19 02:03:52;;;;;;;0.85;0.85;;;;;;;;;;5055312;28;20031;-74
2022/12/19 02:06:18;;;;;;;0.50;0.50;;;;;;;;;;5037389;28;20079;-75
2022/12/19 02:08:46;;;;;;;0.15;0.15;;;;;;;;;;5036755;28;20049;-74
2022/12/19 02:11:12;;;;;;;12.60;2.60;;;;;;;;;;5019602;28;20136;-75
2022/12/19 02:13:38;;;;;;;5.78;2.95;;;;;;;;;;5037135;28;20120;-75
2022/12/19 02:16:15;;;;;;;0.35;0.35;;;;;;;;;;5055003;28;20460;-75
2022/12/19 02:18:47;;;;;;;2.83;2.63;;;;;;;;;;5037157;28;20083;-75
2022/12/19 02:21:17;;;;;;;0.10;0.10;;;;;;;;;;5036936;28;20041;-75
2022/12/19 02:23:58;;;;;;;0.20;0.20;;;;;;;;;;5055074;28;20075;-75
2022/12/19 02:26:24;;;;;;;0.50;0.50;;;;;;;;;;5036385;28;20029;-75
2022/12/19 02:28:56;;;;;;;0.20;0.20;;;;;;;;;;5036989;28;20029;-75
2022/12/19 02:31:26;;;;;;;0.10;0.10;;;;;;;;;;5036848;28;20036;-75
2022/12/19 02:33:51;;;;;;;;;;;;;;;;;;5037276;28;20029;-74
2022/12/19 02:36:40;;;;;;;0.67;0.67;;;;;;;;;;5036991;28;19909;-74
2022/12/19 02:39:09;;;;;;;0.20;0.20;;;;;;;;;;5028200;28;20256;-75
2022/12/19 02:41:43;;;;;;;0.20;0.20;;;;;;;;;;5016860;28;20030;-74
2022/12/19 02:44:15;;;;;;;;;;;;;;;;;;5033569;28;20022;-74
2022/12/19 02:46:41;;;;;;;0.20;0.20;;;;;;;;;;5016965;28;19932;-74
2022/12/19 02:49:06;;;;;;;0.20;0.20;;;;;;;;;;5034568;28;20025;-75
2022/12/19 02:51:32;;;;;;;1.75;1.65;;;;;;;;;;5016134;28;20083;-75
2022/12/19 02:53:58;;;;;;;0.20;0.20;;;;;;;;;;5016892;28;20079;-77
2022/12/19 02:56:32;;;;;;;0.35;0.35;;;;;;;;;;5016557;28;20428;-75
2022/12/19 02:59:11;;;;;;;2.40;2.30;;;;;;;;;;5034186;28;20054;-75
2022/12/19 03:01:38;;;;;;;0.13;0.13;;;;;;;;;;5000364;28;20032;-74
2022/12/19 03:04:27;;;;;;;0.10;0.10;;;;;;;;;;5016595;28;20112;-74
2022/12/19 03:07:01;;;;;;;0.85;0.85;;;;;;;;;;5002634;28;20049;-75
2022/12/19 03:09:36;;;;;;;0.10;0.10;;;;;;;;;;5000143;28;20183;-74
2022/12/19 03:12:05;;;;;;;0.30;0.30;;;;;;;;;;5026215;28;20049;-74
2022/12/19 03:14:32;;;;;;;0.77;0.77;;;;;;;;;;5036089;28;20068;-75
2022/12/19 03:17:01;;;;;;;0.10;0.10;;;;;;;;;;5054021;28;20017;-75
2022/12/19 03:19:27;;;;;;;0.30;0.30;;;;;;;;;;5035945;28;20025;-74
2022/12/19 03:21:52;;;;;;;0.20;0.20;;;;;;;;;;5053614;28;20152;-75
2022/12/19 03:24:18;;;;;;;0.20;0.20;;;;;;;;;;5054218;28;20020;-74
2022/12/19 03:26:50;;;;;;;0.20;0.20;;;;;;;;;;5035217;28;20388;-74
2022/12/19 03:29:27;;;;;;;0.70;0.70;;;;;;;;;;5053653;28;20025;-75
2022/12/19 03:31:53;;;;;;;0.50;0.50;;;;;;;;;;5053673;28;20037;-74
2022/12/19 03:34:27;;;;;;;0.45;0.45;;;;;;;;;;5053681;28;20082;-74
2022/12/19 03:36:55;;;;;;;0.20;0.20;;;;;;;;;;5052291;28;20031;-74
2022/12/19 03:39:21;;;;;;;0.30;0.30;;;;;;;;;;5032609;28;20473;-75
2022/12/19 03:44:34;;;;;;;0.30;0.30;;;;;;;;;;5015851;28;20048;-75
2022/12/19 03:47:11;;;;;;;0.10;0.10;;;;;;;;;;5015727;28;20029;-75
2022/12/19 03:49:37;;;;;;;0.55;0.55;;;;;;;;;;5033433;28;20500;-75
2022/12/19 03:52:11;;;;;;;3.00;1.20;;;;;;;;;;5033317;28;20041;-74
2022/12/19 03:54:41;;;;;;;0.17;0.17;;;;;;;;;;5033454;28;20025;-75
2022/12/19 03:57:13;;;;;;;0.25;0.25;;;;;;;;;;5015691;28;20389;-75
2022/12/19 03:59:44;;;;;;;0.10;0.10;;;;;;;;;;5033211;28;20029;-77
2022/12/19 04:02:10;;;;;;;0.10;0.10;;;;;;;;;;5012842;28;20025;-76
2022/12/19 04:04:38;;;;;;;0.73;0.73;;;;;;;;;;5029741;28;20037;-75
2022/12/19 04:07:04;;;;;;;0.35;0.35;;;;;;;;;;5030127;28;20064;-75
2022/12/19 04:09:31;;;;;;;0.17;0.17;;;;;;;;;;5029566;28;20041;-75
2022/12/19 04:11:59;;;;;;;0.63;0.63;;;;;;;;;;5038127;28;20032;-75
2022/12/19 04:17:57;;;;;;;0.65;0.65;;;;;;;;;;5119319;27;20497;-76
2022/12/19 04:20:26;;;;;;;0.10;0.10;;;;;;;;;;5108205;28;20040;-75
2022/12/19 04:22:56;;;;;;;0.10;0.10;;;;;;;;;;5107243;28;20028;-76
2022/12/19 04:25:21;;;;;;;;;;;;;;;;;;5106738;28;20032;-74
2022/12/19 04:27:52;;;;;;;0.20;0.20;;;;;;;;;;5107382;28;19908;-74
2022/12/19 04:30:18;;;;;;;0.40;0.40;;;;;;;;;;5107234;28;20420;-75
2022/12/19 04:32:44;;;;;;;0.10;0.10;;;;;;;;;;5100084;28;20032;-74
2022/12/19 04:35:10;;;;;;;0.32;0.32;;;;;;;;;;5086858;28;20455;-75
2022/12/19 04:37:36;;;;;;;1.17;1.17;;;;;;;;;;5086401;28;20046;-75
2022/12/19 04:40:01;;;;;;;2.13;0.93;;;;;;;;;;5086651;28;20024;-74
2022/12/19 04:42:27;;;;;;;2.05;1.95;;;;;;;;;;5086272;28;20029;-75
2022/12/19 04:44:52;;;;;;;0.20;0.20;;;;;;;;;;5086785;28;20074;-76
2022/12/19 04:47:18;;;;;;;0.35;0.35;;;;;;;;;;5085856;28;20028;-75
2022/12/19 04:49:43;;;;;;;0.20;0.20;;;;;;;;;;5086847;28;20012;-76
2022/12/19 04:52:09;;;;;;;0.65;0.65;;;;;;;;;;5086372;28;20029;-77
2022/12/19 04:54:34;;;;;;;0.20;0.20;;;;;;;;;;5086658;28;20111;-76
2022/12/19 04:57:00;;;;;;;0.95;0.95;;;;;;;;;;5086570;28;20115;-75
2022/12/19 04:59:25;;;;;;;0.10;0.10;;;;;;;;;;5086290;28;20052;-75
2022/12/19 05:01:50;;;;;;;0.43;0.43;;;;;;;;;;5086865;28;20012;-75
2022/12/19 05:04:16;;;;;;;0.10;0.10;;;;;;;;;;5086044;28;20043;-75
2022/12/19 05:06:41;;;;;;;0.30;0.30;;;;;;;;;;5086217;28;20032;-75
2022/12/19 05:09:08;;;;;;;0.10;0.10;;;;;;;;;;5085951;28;20122;-75
2022/12/19 05:11:34;;;;;;;0.10;0.10;;;;;;;;;;5087512;28;20047;-74
2022/12/19 05:13:59;;;;;;;0.30;0.30;;;;;;;;;;5098276;28;20027;-74
2022/12/19 05:16:25;;;;;;;0.10;0.10;;;;;;;;;;5106042;28;20521;-76
2022/12/19 05:18:51;;;;;;;0.10;0.10;;;;;;;;;;5105296;28;20149;-76
2022/12/19 05:21:17;;;;;;;0.15;0.15;;;;;;;;;;5106180;28;20115;-75
2022/12/19 05:23:42;;;;;;;0.38;0.38;;;;;;;;;;5106632;28;20470;-75
2022/12/19 05:26:09;;;;;;;4.50;1.95;;;;;;;;;;5104346;28;20040;-75
2022/12/19 05:28:35;;;;;;;0.10;0.10;;;;;;;;;;5096539;28;20030;-75
2022/12/19 05:31:04;;;;;;;0.10;0.10;;;;;;;;;;5092526;28;20111;-75
2022/12/19 05:33:29;;;;;;;0.20;0.20;;;;;;;;;;5092423;28;20028;-75
2022/12/19 05:35:55;;;;;;;0.63;0.63;;;;;;;;;;5090924;28;20508;-75
2022/12/19 05:38:20;;;;;;;0.17;0.17;;;;;;;;;;5091295;28;20547;-75
2022/12/19 05:40:46;;;;;;;0.30;0.30;;;;;;;;;;5092349;28;20028;-75
2022/12/19 05:43:11;;;;;;;0.10;0.10;;;;;;;;;;5091089;28;20024;-76
2022/12/19 05:45:40;;;;;;;1.98;1.88;;;;;;;;;;5091345;28;20372;-76
2022/12/19 05:48:05;;;;;;;0.55;0.55;;;;;;;;;;5091269;28;20032;-77
2022/12/19 05:50:31;;;;;;;1.45;1.38;;;;;;;;;;5091026;28;20028;-76
2022/12/19 05:53:07;;;;;;;0.10;0.10;;;;;;;;;;5092370;28;20032;-77
2022/12/19 05:55:33;;;;;;;0.10;0.10;;;;;;;;;;5090372;28;20540;-76
2022/12/19 05:57:58;;;;;;;0.95;0.95;;;;;;;;;;5091054;28;20020;-76
2022/12/19 06:00:24;;;;;;;0.10;0.10;;;;;;;;;;5090971;28;20506;-76
2022/12/19 06:02:49;;;;;;;0.20;0.20;;;;;;;;;;5091795;28;20567;-76
2022/12/19 06:05:15;;;;;;;1.15;1.15;;;;;;;;;;5091320;28;20110;-76
2022/12/19 06:07:41;;;;;;;0.10;0.10;;;;;;;;;;5090992;28;20039;-76
2022/12/19 06:10:06;;;;;;;0.10;0.10;;;;;;;;;;5091314;28;20036;-76
2022/12/19 06:12:32;;;;;;;0.10;0.10;;;;;;;;;;5090825;28;20020;-76
2022/12/19 06:14:57;;;;;;;0.38;0.38;;;;;;;;;;5091454;28;20537;-76
2022/12/19 06:17:23;;;;;;;0.17;0.17;;;;;;;;;;5091141;28;20382;-75
2022/12/19 06:19:48;;;;;;;0.10;0.10;;;;;;;;;;5090690;28;20032;-77
2022/12/19 06:22:14;;;;;;;0.30;0.30;;;;;;;;;;5090537;28;20102;-75
2022/12/19 06:24:39;;;;;;;0.10;0.10;;;;;;;;;;5089768;28;20034;-75
2022/12/19 06:27:05;;;;;;;0.63;0.63;;;;;;;;;;5091250;28;20067;-76
2022/12/19 06:29:30;;;;;;;0.20;0.20;;;;;;;;;;5091042;28;20412;-75
2022/12/19 06:31:55;;;;;;;0.45;0.43;;;;;;;;;;5088678;28;20355;-75
2022/12/19 06:34:21;;;;;;;0.10;0.10;;;;;;;;;;5091365;28;20173;-76
2022/12/19 06:36:46;;;;;;;6.00;5.40;;;;;;;;;;5092305;28;20061;-76
2022/12/19 06:39:13;;;;;;;0.10;0.10;;;;;;;;;;5089625;28;20486;-76
2022/12/19 06:44:22;;;;;;;0.10;0.10;;;;;;;;;;5091254;28;20116;-74
2022/12/19 06:46:48;;;;;;;0.13;0.13;;;;;;;;;;5091178;28;20115;-75
2022/12/19 06:49:13;;;;;;;0.10;0.10;;;;;;;;;;5091081;28;20394;-75
2022/12/19 06:51:39;;;;;;;0.30;0.30;;;;;;;;;;5090904;28;20398;-75
2022/12/19 06:54:05;;;;;;;0.10;0.10;;;;;;;;;;5090196;28;20032;-76
2022/12/19 06:56:37;;;;;;;0.30;0.30;;;;;;;;;;5090528;28;20546;-76
2022/12/19 06:59:03;;;;;;;0.10;0.10;;;;;;;;;;5088543;28;20024;-75
2022/12/19 07:01:41;;;;;;;1.33;1.27;;;;;;;;;;5087487;28;20030;-75
2022/12/19 07:04:08;;;;;;;0.20;0.20;;;;;;;;;;5090930;28;20035;-75
2022/12/19 07:06:33;;;;;;;1.10;0.82;;;;;;;;;;5090680;28;20024;-75
2022/12/19 07:08:58;;;;;;;0.43;0.43;;;;;;;;;;5090002;28;20132;-75
2022/12/19 07:11:24;;;;;;;0.10;0.10;;;;;;;;;;5089319;28;20056;-74
2022/12/19 07:13:49;;;;;;;0.10;0.10;;;;;;;;;;5072665;28;20020;-76
2022/12/19 07:16:15;;;;;;;0.55;0.55;;;;;;;;;;5090708;28;20063;-74
2022/12/19 07:18:40;;;;;;;2.67;2.58;;;;;;;;;;5090355;28;20356;-75
2022/12/19 07:21:07;;;;;;;0.20;0.20;;;;;;;;;;5090221;28;20053;-75
2022/12/19 07:23:33;;;;;;;0.10;0.10;;;;;;;;;;5090805;28;20024;-75
2022/12/19 07:25:58;;;;;;;0.15;0.15;;;;;;;;;;5089831;28;20081;-75
2022/12/19 07:28:24;;;;;;;0.10;0.10;;;;;;;;;;5090247;28;20631;-74
2022/12/19 07:30:49;;;;;;;0.63;0.63;;;;;;;;;;5090345;28;20032;-75
2022/12/19 07:33:14;;;;;;;0.13;0.13;;;;;;;;;;5089892;28;20035;-76
2022/12/19 07:35:40;;;;;;;1.92;1.85;;;;;;;;;;5088708;28;20024;-75
2022/12/19 07:38:06;;;;;;;0.22;0.22;;;;;;;;;;5090280;28;20577;-75
2022/12/19 07:40:32;;;;;;;5.50;2.22;;;;;;;;;;5089190;28;20386;-74
2022/12/19 07:42:58;;;;;;;0.47;0.47;;;;;;;;;;5088443;28;20028;-75
2022/12/19 07:45:23;;;;;;;2.45;2.25;;;;;;;;;;5088622;28;20029;-76
2022/12/19 07:47:49;;;;;;;0.50;0.50;;;;;;;;;;5088095;28;20489;-76
2022/12/19 07:50:14;;;;;;;0.65;0.65;;;;;;;;;;5089240;28;20390;-75
2022/12/19 07:52:43;;;;;;;0.20;0.20;;;;;;;;;;5089559;28;20031;-75
2022/12/19 07:55:08;;;;;;;0.20;0.20;;;;;;;;;;5088948;28;20023;-76
2022/12/19 07:57:34;;;;;;;0.30;0.30;;;;;;;;;;5089407;28;20035;-76
2022/12/19 07:59:59;;;;;;;0.20;0.20;;;;;;;;;;5090243;28;20039;-76
2022/12/19 08:02:24;;;;;;;0.10;0.10;;;;;;;;;;5088056;28;20032;-76
2022/12/19 08:04:50;;;;;;;0.20;0.20;;;;;;;;;;5083424;28;20028;-76
2022/12/19 08:07:15;;;;;;;0.22;0.22;;;;;;;;;;5074255;28;20429;-76
2022/12/19 08:09:41;;;;;;;0.20;0.20;;;;;;;;;;5069467;28;20056;-75
2022/12/19 08:12:06;;;;;;;0.20;0.20;;;;;;;;;;5069359;28;20474;-75
2022/12/19 08:14:32;;;;;;;0.20;0.20;;;;;;;;;;5069605;28;20036;-75
2022/12/19 08:16:57;;;;;;;0.20;0.20;;;;;;;;;;5068076;28;20084;-75
2022/12/19 08:19:23;;;;;;;0.20;0.20;;;;;;;;;;5069450;28;20025;-76
2022/12/19 08:21:48;;;;;;;0.10;0.10;;;;;;;;;;5067783;28;20475;-75
2022/12/19 08:24:14;;;;;;;0.35;0.35;;;;;;;;;;5069455;28;20029;-75
2022/12/19 08:26:40;;;;;;;0.10;0.10;;;;;;;;;;5071474;28;20071;-76
2022/12/19 08:29:05;;;;;;;0.30;0.30;;;;;;;;;;5084721;28;20062;-76
2022/12/19 08:31:31;;;;;;;0.25;0.25;;;;;;;;;;5085932;28;20024;-76
2022/12/19 08:33:56;;;;;;;0.10;0.10;;;;;;;;;;5089571;28;20349;-76
2022/12/19 08:36:22;;;;;;;0.10;0.10;;;;;;;;;;5086297;28;20100;-76
2022/12/19 08:38:47;;;;;;;0.10;0.10;;;;;;;;;;5062449;28;20501;-77
2022/12/19 08:41:13;;;;;;;0.10;0.10;;;;;;;;;;5084332;28;20051;-76
2022/12/19 08:43:39;;;;;;;0.10;0.10;;;;;;;;;;5087220;28;20016;-75
2022/12/19 08:46:05;;;;;;;0.10;0.10;;;;;;;;;;5088611;28;20036;-79
2022/12/19 08:48:31;;;;;;;0.10;0.10;;;;;;;;;;5089918;28;20062;-77
2022/12/19 08:50:58;;;;;;;0.10;0.10;;;;;;;;;;5088729;28;20023;-78
2022/12/19 08:53:24;;;;;;;0.10;0.10;;;;;;;;;;5088164;28;20061;-78
2022/12/19 08:55:54;;;;;;;0.30;0.30;;;;;;;;;;5087220;28;20020;-74
2022/12/19 08:58:20;;;;;;;0.20;0.20;;;;;;;;;;5092858;28;20044;-75
2022/12/19 09:00:45;;;;;;;0.10;0.10;;;;;;;;;;5099324;28;20009;-75
2022/12/19 09:03:11;;;;;;;0.10;0.10;;;;;;;;;;5092045;28;20543;-75
2022/12/19 09:05:37;;;;;;;0.43;0.43;;;;;;;;;;5108476;28;20044;-76
2022/12/19 09:08:03;;;;;;;0.20;0.20;;;;;;;;;;5095783;28;20101;-75
2022/12/19 09:10:30;;;;;;;0.20;0.20;;;;;;;;;;5094255;28;20048;-74
2022/12/19 09:12:55;;;;;;;0.10;0.10;;;;;;;;;;5102107;28;20423;-75
2022/12/19 09:15:21;;;;;;;0.15;0.15;;;;;;;;;;5097674;28;20024;-75
2022/12/19 09:17:46;;;;;;;0.20;0.20;;;;;;;;;;5093848;28;20524;-74
2022/12/19 09:20:12;;;;;;;0.13;0.13;;;;;;;;;;5092723;28;20494;-71
2022/12/19 09:22:37;;;;;;;0.10;0.10;;;;;;;;;;5094745;28;20474;-71
2022/12/19 09:25:03;;;;;;;0.20;0.20;;;;;;;;;;5079662;28;20029;-70
2022/12/19 09:27:28;;;;;;;0.28;0.28;;;;;;;;;;5072261;28;20044;-71
2022/12/19 09:29:54;;;;;;;0.15;0.15;;;;;;;;;;5070949;28;20033;-71
2022/12/19 09:32:19;;;;;;;0.10;0.10;;;;;;;;;;5072330;28;20059;-77
2022/12/19 09:34:45;;;;;;;0.88;0.88;;;;;;;;;;5072292;28;20040;-71
2022/12/19 09:37:10;;;;;;;0.43;0.43;;;;;;;;;;5084405;28;20032;-70
2022/12/19 09:39:36;;;;;;;0.30;0.30;;;;;;;;;;5073645;28;20020;-71
2022/12/19 09:42:13;;;;;;;0.20;0.20;;;;;;;;;;5091780;28;20028;-71
2022/12/19 09:44:54;;;;;;;0.25;0.25;;;;;;;;;;5091741;28;20016;-71
2022/12/19 09:47:25;;;;;;;0.10;0.10;;;;;;;;;;5090244;28;20032;-70
2022/12/19 09:49:53;;;;;;;0.17;0.17;;;;;;;;;;5090573;28;20112;-72
2022/12/19 09:52:22;;;;;;;0.35;0.35;;;;;;;;;;5091343;28;20101;-73
2022/12/19 09:54:50;;;;;;;0.20;0.20;;;;;;;;;;5091694;28;20027;-70
2022/12/19 09:57:35;;;;;;;0.20;0.20;;;;;;;;;;5091029;28;20036;-71
2022/12/19 10:00:04;;;;;;;0.20;0.20;;;;;;;;;;5090956;28;20540;-71
2022/12/19 10:02:38;;;;;;;0.30;0.30;;;;;;;;;;5091334;28;20028;-76
2022/12/19 10:05:16;;;;;;;3.50;3.20;;;;;;;;;;5088534;28;20031;-71
2022/12/19 10:07:43;;;;;;;0.47;0.47;;;;;;;;;;5091339;28;20036;-70
2022/12/19 10:10:14;;;;;;;0.20;0.20;;;;;;;;;;5091114;28;20028;-70
2022/12/19 10:12:46;;;;;;;1.25;1.15;;;;;;;;;;5091022;28;20417;-71
2022/12/19 10:15:34;;;;;;;0.30;0.30;;;;;;;;;;5090938;28;20084;-71
2022/12/19 10:18:04;;;;;;;0.63;0.60;;;;;;;;;;5090259;28;20040;-71
2022/12/19 10:20:33;;;;;;;0.65;0.55;;;;;;;;;;5090913;28;20491;-71
2022/12/19 10:23:08;;;;;;;3.20;0.68;;;;;;;;;;5090745;28;20032;-71
2022/12/19 10:25:39;;;;;;;0.57;0.52;;;;;;;;;;5071791;28;20530;-73
2022/12/19 10:28:14;;;;;;;0.20;0.20;;;;;;;;;;5088576;28;20028;-72
2022/12/19 10:31:09;;;;;;;0.85;0.57;;;;;;;;;;5089633;28;20046;-70
2022/12/19 10:33:40;;;;;;;0.68;0.57;;;;;;;;;;5080799;28;20051;-72
2022/12/19 10:36:08;;;;;;;2.47;0.95;;;;;;;;;;5088560;28;20032;-70
2022/12/19 10:38:40;;;;;;;0.33;0.33;;;;;;;;;;5090673;28;20034;-70
2022/12/19 10:41:09;;;;;;;3.05;2.05;;;;;;;;;;5087343;28;20024;-70
2022/12/19 10:43:34;;;;;;;0.40;0.40;;;;;;;;;;5084308;28;20479;-70
2022/12/19 10:46:02;;;;;;;0.63;0.50;;;;;;;;;;5084581;28;20095;-70
2022/12/19 10:48:29;;;;;;;0.10;0.10;;;;;;;;;;5068155;28;20032;-69
2022/12/19 10:50:54;;;;;;;0.52;0.43;;;;;;;;;;5087590;28;20051;-69
2022/12/19 10:53:27;;;;;;;0.25;0.25;;;;;;;;;;5110212;28;20533;-71
2022/12/19 10:55:54;;;;;;;8.40;0.80;;;;;;;;;;5101716;28;20167;-70
2022/12/19 10:58:20;;;;;;;0.20;0.20;;;;;;;;;;5111117;28;20099;-71
2022/12/19 11:01:05;;;;;;;0.28;0.28;;;;;;;;;;5106869;28;20451;-71
2022/12/19 11:03:32;;;;;;;0.20;0.20;;;;;;;;;;5100082;28;20431;-77
2022/12/19 11:05:58;;;;;;;0.17;0.17;;;;;;;;;;5097906;27;20383;-74
2022/12/19 11:08:23;;;;;;;0.30;0.30;;;;;;;;;;5095795;28;20106;-70
2022/12/19 11:10:50;;;;;;;0.13;0.13;;;;;;;;;;5090840;28;20123;-70
2022/12/19 11:13:27;;;;;;;2.47;0.88;;;;;;;;;;5090020;28;20017;-72
2022/12/19 11:15:57;;;;;;;0.30;0.30;;;;;;;;;;5090356;28;20048;-69
2022/12/19 11:18:23;;;;;;;0.25;0.25;;;;;;;;;;5090359;28;20109;-70
2022/12/19 11:20:53;;;;;;;0.38;0.38;;;;;;;;;;5090456;28;20030;-70
2022/12/19 11:23:19;;;;;;;0.20;0.20;;;;;;;;;;5090062;28;20028;-71
2022/12/19 11:25:51;;;;;;;0.20;0.20;;;;;;;;;;5089748;28;20430;-70
2022/12/19 11:28:19;;;;;;;0.22;0.22;;;;;;;;;;5090218;28;20024;-70
2022/12/19 11:30:53;;;;;;;0.20;0.20;;;;;;;;;;5090325;28;20020;-71
2022/12/19 11:33:19;;;;;;;0.40;0.40;;;;;;;;;;5090069;28;20488;-70
2022/12/19 11:35:52;;;;;;;0.22;0.22;;;;;;;;;;5089880;28;20035;-71
2022/12/19 11:38:20;;;;;;;0.40;0.30;;;;;;;;;;5086199;28;20032;-71
2022/12/19 11:40:55;;;;;;;0.25;0.25;;;;;;;;;;5076425;28;20036;-71
2022/12/19 11:43:41;;;;;;;0.30;0.30;;;;;;;;;;5080698;28;20043;-72
2022/12/19 11:46:07;;;;;;;3.08;0.70;;;;;;;;;;5083711;28;20036;-72
2022/12/19 11:48:41;;;;;;;0.77;0.77;;;;;;;;;;5076860;28;20100;-71
2022/12/19 11:51:21;;;;;;;0.95;0.55;;;;;;;;;;5083332;28;20049;-73
2022/12/19 11:54:10;;;;;;;0.20;0.20;;;;;;;;;;5103865;28;20070;-72
2022/12/19 11:56:35;;;;;;;0.88;0.47;;;;;;;;;;5105991;28;20034;-80
2022/12/19 11:59:16;;;;;;;0.15;0.15;;;;;;;;;;5097440;28;20028;-71
2022/12/19 12:01:45;;;;;;;0.20;0.20;;;;;;;;;;5087131;28;20028;-72
2022/12/19 12:04:23;;;;;;;0.20;0.20;;;;;;;;;;5088867;28;20028;-71
2022/12/19 12:06:52;;;;;;;0.30;0.30;;;;;;;;;;5090076;28;20352;-78
2022/12/19 12:09:18;;;;;;;0.20;0.20;;;;;;;;;;5088662;28;20063;-72
2022/12/19 12:12:02;;;;;;;0.30;0.30;;;;;;;;;;5089115;28;20067;-71
2022/12/19 12:14:33;;;;;;;0.63;0.63;;;;;;;;;;5089098;28;20024;-78
2022/12/19 12:17:17;;;;;;;0.32;0.32;;;;;;;;;;5088365;28;20051;-72
2022/12/19 12:20:01;;;;;;;0.57;0.52;;;;;;;;;;5086788;28;20064;-71
2022/12/19 12:22:45;;;;;;;1.08;0.55;;;;;;;;;;5068999;28;20032;-70
2022/12/19 12:25:23;;;;;;;0.70;0.57;;;;;;;;;;5068847;28;20028;-70
2022/12/19 12:28:01;;;;;;;0.38;0.38;;;;;;;;;;5068748;28;20028;-71
2022/12/19 12:30:32;;;;;;;0.50;0.50;;;;;;;;;;5075871;28;20023;-72
2022/12/19 12:32:58;;;;;;;1.30;0.77;;;;;;;;;;5082752;28;20034;-71
2022/12/19 12:35:38;;;;;;;1.90;1.70;;;;;;;;;;5058262;28;20528;-71
2022/12/19 12:38:12;;;;;;;4.50;2.25;;;;;;;;;;5075267;28;20036;-71
2022/12/19 12:40:43;;;;;;;0.63;0.63;;;;;;;;;;5103875;28;20024;-71
2022/12/19 12:43:09;;;;;;;1.70;1.10;;;;;;;;;;5114326;28;20031;-71
2022/12/19 12:45:38;;;;;;;0.30;0.30;;;;;;;;;;5113669;28;20028;-71
2022/12/19 12:48:18;;;;;;;5.03;4.70;;;;;;;;;;5102828;28;20032;-71
2022/12/19 12:50:45;;;;;;;0.30;0.30;;;;;;;;;;5106314;28;20385;-77
2022/12/19 12:53:14;;;;;;;1.23;0.88;;;;;;;;;;5111517;28;20026;-74
2022/12/19 12:55:41;;;;;;;0.20;0.20;;;;;;;;;;5093404;28;20023;-67
2022/12/19 12:58:25;;;;;;;0.65;0.65;;;;;;;;;;5092218;28;20955;-67
2022/12/19 13:01:26;;;;;;;0.45;0.45;;;;;;;;;;5092689;28;20039;-64
2022/12/19 13:03:55;;;;;;;0.28;0.28;;;;;;;;;;5030472;28;20538;-74
2022/12/19 13:06:20;;;;;;;0.40;0.40;;;;;;;;;;5049294;28;20051;-71
2022/12/19 13:08:47;;;;;;;0.40;0.40;;;;;;;;;;5077760;22;20774;-69
2022/12/19 13:12:58;;;;;;;0.20;0.20;;;;;;;;;;5049524;28;20430;-71
2022/12/19 13:14:00;;;;;;;0.40;0.40;;;;;;;;;;5031597;28;20025;-72
2022/12/19 13:16:43;;;;;;;0.20;0.20;;;;;;;;;;5033066;28;20361;-79
2022/12/19 13:19:12;;;;;;;0.20;0.20;;;;;;;;;;5030138;28;20048;-77
2022/12/19 13:21:56;;;;;;;0.20;0.20;;;;;;;;;;5056771;28;20035;-71
2022/12/19 13:24:22;;;;;;;0.25;0.25;;;;;;;;;;5068367;28;20055;-70
2022/12/19 13:26:49;;;;;;;0.20;0.20;;;;;;;;;;5071910;28;20028;-71
2022/12/19 13:29:29;;;;;;;0.20;0.20;;;;;;;;;;5053830;28;20032;-70
2022/12/19 13:32:08;;;;;;;0.30;0.30;;;;;;;;;;5052456;28;20043;-72
2022/12/19 13:34:36;;;;;;;0.30;0.30;;;;;;;;;;5070088;28;20490;-71
2022/12/19 13:37:07;;;;;;;0.50;0.50;;;;;;;;;;5070138;28;20569;-71
2022/12/19 13:39:39;;;;;;;1.02;0.38;;;;;;;;;;5032139;28;20037;-73
2022/12/19 13:44:50;;;;;;;0.20;0.20;;;;;;;;;;5030919;28;20036;-72
2022/12/19 13:47:15;;;;;;;0.38;0.38;;;;;;;;;;5031022;28;20395;-71
2022/12/19 13:49:42;;;;;;;0.20;0.20;;;;;;;;;;5031407;28;20076;-70
2022/12/19 13:52:10;;;;;;;0.30;0.30;;;;;;;;;;5031822;28;20072;-70
2022/12/19 13:54:43;;;;;;;0.40;0.30;;;;;;;;;;5031122;28;20025;-71
2022/12/19 13:57:28;;;;;;;0.32;0.32;;;;;;;;;;5030077;28;20464;-69
2022/12/19 13:59:57;;;;;;;0.40;0.40;;;;;;;;;;5029830;28;20022;-73
2022/12/19 14:02:26;;;;;;;0.73;0.68;;;;;;;;;;5029530;28;20125;-70
2022/12/19 14:04:52;;;;;;;;;;;;;;;;;;5030105;28;20033;-71
2022/12/19 14:07:36;;;;;;;0.30;0.30;;;;;;;;;;5029588;28;19909;-70
2022/12/19 14:10:03;;;;;;;0.10;0.10;;;;;;;;;;5030386;28;20284;-70
2022/12/19 14:15:19;;;;;;;1.55;1.48;;;;;;;;;;5032014;28;20059;-70
2022/12/19 14:17:48;;;;;;;0.13;0.13;;;;;;;;;;5031626;28;20557;-69
2022/12/19 14:20:18;;;;;;;0.88;0.73;;;;;;;;;;5046930;28;20115;-70
2022/12/19 14:22:43;;;;;;;0.25;0.20;;;;;;;;;;5043134;28;20033;-69
2022/12/19 14:25:10;;;;;;;0.20;0.20;;;;;;;;;;5013657;28;20036;-70
2022/12/19 14:27:35;;;;;;;0.28;0.28;;;;;;;;;;5031337;28;20900;-70
2022/12/19 14:30:01;;;;;;;0.25;0.25;;;;;;;;;;5041469;28;20021;-71
2022/12/19 14:32:27;;;;;;;0.30;0.30;;;;;;;;;;5042707;28;20040;-70
2022/12/19 14:34:53;;;;;;;1.02;0.98;;;;;;;;;;5045244;28;20040;-72
2022/12/19 14:37:27;;;;;;;0.20;0.20;;;;;;;;;;5049064;28;20045;-73
2022/12/19 14:39:56;;;;;;;0.55;0.30;;;;;;;;;;5036526;28;20477;-72
2022/12/19 14:45:25;;;;;;;0.30;0.30;;;;;;;;;;5035727;28;20026;-75
2022/12/19 14:47:51;;;;;;;0.20;0.20;;;;;;;;;;5047204;28;20036;-73
2022/12/19 14:50:25;;;;;;;0.20;0.20;;;;;;;;;;5049411;28;20572;-73
2022/12/19 14:53:04;;;;;;;0.57;0.57;;;;;;;;;;5040597;28;20388;-75
2022/12/19 14:55:31;;;;;;;0.20;0.20;;;;;;;;;;5050789;28;20025;-77
2022/12/19 14:57:57;;;;;;;0.20;0.20;;;;;;;;;;5061927;28;20036;-78
2022/12/19 15:00:28;;;;;;;0.20;0.20;;;;;;;;;;5061082;28;20016;-78
2022/12/19 15:02:55;;;;;;;0.20;0.20;;;;;;;;;;5046766;28;20029;-81
2022/12/19 15:05:21;;;;;;;0.28;0.28;;;;;;;;;;5046031;28;20019;-76
2022/12/19 15:07:49;;;;;;;0.20;0.20;;;;;;;;;;5048193;28;20025;-78
2022/12/19 15:10:14;;;;;;;0.20;0.20;;;;;;;;;;5045979;28;20053;-79
2022/12/19 15:15:49;;;;;;;0.28;0.28;;;;;;;;;;5047761;28;20692;-77